createdAt,value
2022-10-12T00:01:35.708Z,5.03
2022-10-12T00:04:02.803Z,4.63
2022-10-12T00:06:29.871Z,5.15
2022-10-12T00:08:56.754Z,5.10
2022-10-12T00:11:28.918Z,4.20
2022-10-12T00:13:58.254Z,4.10
2022-10-12T00:16:26.509Z,4.85
2022-10-12T00:18:56.539Z,4.97
2022-10-12T00:21:25.642Z,4.70
2022-10-12T00:24:01.717Z,4.65
2022-10-12T00:26:30.018Z,4.70
2022-10-12T00:29:00.276Z,5.90
2022-10-12T00:31:29.732Z,5.50
2022-10-12T00:34:02.257Z,5.20
2022-10-12T00:36:35.782Z,5.50
2022-10-12T00:39:07.559Z,6.15
2022-10-12T00:41:43.262Z,5.25
2022-10-12T00:44:44.490Z,5.55
2022-10-12T00:47:28.171Z,5.72
2022-10-12T00:50:18.376Z,4.78
2022-10-12T00:53:05.804Z,4.93
2022-10-12T00:55:39.787Z,4.55
2022-10-12T00:58:09.076Z,4.28
2022-10-12T01:00:38.923Z,4.70
2022-10-12T01:03:09.693Z,4.93
2022-10-12T01:05:40.753Z,4.93
2022-10-12T01:08:07.611Z,4.75
2022-10-12T01:10:34.413Z,4.53
2022-10-12T01:13:02.219Z,4.50
2022-10-12T01:15:59.642Z,4.40
2022-10-12T01:18:52.130Z,4.28
2022-10-12T01:21:23.451Z,4.40
2022-10-12T01:24:31.640Z,4.20
2022-10-12T01:27:24.148Z,4.00
2022-10-12T01:29:56.944Z,4.93
2022-10-12T01:32:32.943Z,4.57
2022-10-12T01:35:19.949Z,4.70
2022-10-12T01:38:20.865Z,4.45
2022-10-12T01:41:06.343Z,4.40
2022-10-12T01:43:37.314Z,4.60
2022-10-12T01:46:13.385Z,4.65
2022-10-12T01:48:43.054Z,5.05
2022-10-12T01:51:17.217Z,5.13
2022-10-12T01:53:57.211Z,4.47
2022-10-12T01:56:47.181Z,4.50
2022-10-12T01:59:58.688Z,4.95
2022-10-12T02:03:15.011Z,4.43
2022-10-12T02:05:55.119Z,4.80
2022-10-12T02:08:34.833Z,4.25
2022-10-12T02:11:21.458Z,4.43
2022-10-12T02:13:58.236Z,4.35
2022-10-12T02:16:38.655Z,4.47
2022-10-12T02:19:15.185Z,5.05
2022-10-12T02:21:50.656Z,4.68
2022-10-12T02:24:22.341Z,4.70
2022-10-12T02:26:56.648Z,4.80
2022-10-12T02:29:36.547Z,5.43
2022-10-12T02:32:17.872Z,4.95
2022-10-12T02:34:58.871Z,4.68
2022-10-12T02:37:44.365Z,4.43
2022-10-12T02:43:10.515Z,4.45
2022-10-12T02:45:46.440Z,5.00
2022-10-12T02:51:15.346Z,4.93
2022-10-12T02:53:47.874Z,4.80
2022-10-12T02:56:22.267Z,4.78
2022-10-12T02:58:55.976Z,5.10
2022-10-12T03:13:35.904Z,5.22
2022-10-12T03:26:06.316Z,5.45
2022-10-12T03:28:33.950Z,4.95
2022-10-12T03:31:00.970Z,5.25
2022-10-12T03:33:28.026Z,5.25
2022-10-12T03:35:54.963Z,5.80
2022-10-12T03:38:21.855Z,4.97
2022-10-12T03:40:48.694Z,5.43
2022-10-12T03:43:15.543Z,5.13
2022-10-12T03:45:42.526Z,5.75
2022-10-12T03:48:10.044Z,5.05
2022-10-12T03:50:37.181Z,5.25
2022-10-12T03:53:06.250Z,5.05
2022-10-12T03:55:33.576Z,5.18
2022-10-12T03:58:00.698Z,5.53
2022-10-12T04:00:28.549Z,4.90
2022-10-12T04:02:56.095Z,5.55
2022-10-12T04:05:23.326Z,4.45
2022-10-12T04:07:51.263Z,5.20
2022-10-12T04:10:18.465Z,4.63
2022-10-12T04:12:46.652Z,4.93
2022-10-12T04:15:14.469Z,4.95
2022-10-12T04:17:41.836Z,5.30
2022-10-12T04:20:11.394Z,5.45
2022-10-12T04:22:39.939Z,5.63
2022-10-12T04:25:07.548Z,5.28
2022-10-12T04:27:34.956Z,4.63
2022-10-12T04:30:02.051Z,4.90
2022-10-12T04:32:29.656Z,5.05
2022-10-12T04:34:57.035Z,5.10
2022-10-12T04:37:23.873Z,5.57
2022-10-12T04:39:50.883Z,5.15
2022-10-12T04:42:19.184Z,5.70
2022-10-12T04:44:46.935Z,5.10
2022-10-12T04:47:13.873Z,4.93
2022-10-12T04:49:40.696Z,5.07
2022-10-12T04:52:07.506Z,5.53
2022-10-12T04:54:34.442Z,5.50
2022-10-12T04:57:01.714Z,5.80
2022-10-12T04:59:28.598Z,4.97
2022-10-12T05:01:55.537Z,5.05
2022-10-12T05:04:22.785Z,5.25
2022-10-12T05:06:49.736Z,5.47
2022-10-12T05:09:17.472Z,5.00
2022-10-12T05:11:44.603Z,5.95
2022-10-12T05:14:12.138Z,5.13
2022-10-12T05:16:39.540Z,5.00
2022-10-12T05:19:06.622Z,5.43
2022-10-12T05:21:34.905Z,5.38
2022-10-12T05:24:01.988Z,4.68
2022-10-12T05:26:29.274Z,4.70
2022-10-12T05:28:56.275Z,5.32
2022-10-12T05:31:23.552Z,4.90
2022-10-12T05:33:50.892Z,4.93
2022-10-12T05:36:17.817Z,5.38
2022-10-12T05:38:44.808Z,6.15
2022-10-12T05:41:11.946Z,5.30
2022-10-12T05:43:39.257Z,5.03
2022-10-12T05:46:06.995Z,4.85
2022-10-12T05:48:35.149Z,5.57
2022-10-12T05:51:02.264Z,4.63
2022-10-12T05:53:29.201Z,5.60
2022-10-12T05:55:59.633Z,4.47
2022-10-12T05:58:28.857Z,5.20
2022-10-12T06:01:04.706Z,4.80
2022-10-12T06:03:34.856Z,5.18
2022-10-12T06:06:04.191Z,5.18
2022-10-12T06:08:32.566Z,5.00
2022-10-12T06:10:59.981Z,4.90
2022-10-12T06:13:27.972Z,4.90
2022-10-12T06:15:55.560Z,5.10
2022-10-12T06:18:23.086Z,5.25
2022-10-12T06:21:14.846Z,5.10
2022-10-12T06:23:41.187Z,5.82
2022-10-12T06:26:08.056Z,5.50
2022-10-12T06:28:35.021Z,5.32
2022-10-12T06:31:02.096Z,5.47
2022-10-12T06:33:29.645Z,5.60
2022-10-12T06:35:57.566Z,5.78
2022-10-12T06:38:25.326Z,5.43
2022-10-12T06:40:53.630Z,5.75
2022-10-12T06:43:23.403Z,5.50
2022-10-12T06:45:56.437Z,5.80
2022-10-12T06:48:25.737Z,5.53
2022-10-12T06:50:54.840Z,5.63
2022-10-12T06:53:28.995Z,6.65
2022-10-12T06:55:59.584Z,5.57
2022-10-12T06:58:26.939Z,6.22
2022-10-12T07:00:56.058Z,6.43
2022-10-12T07:03:25.087Z,6.70
2022-10-12T07:05:56.424Z,7.07
2022-10-12T07:08:25.507Z,6.65
2022-10-12T07:11:13.389Z,6.65
2022-10-12T07:13:42.872Z,7.60
2022-10-12T07:16:12.298Z,9.07
2022-10-12T07:18:42.471Z,9.50
2022-10-12T07:21:10.502Z,8.65
2022-10-12T07:23:42.381Z,11.77
2022-10-12T07:26:14.979Z,10.55
2022-10-12T07:28:44.113Z,10.90
2022-10-12T07:31:16.174Z,11.35
2022-10-12T07:33:47.623Z,10.77
2022-10-12T07:36:21.545Z,9.30
2022-10-12T07:38:55.029Z,9.68
2022-10-12T07:41:22.098Z,10.77
2022-10-12T07:43:54.326Z,10.07
2022-10-12T07:46:21.295Z,9.30
2022-10-12T07:48:50.424Z,9.57
2022-10-12T07:51:18.407Z,9.85
2022-10-12T07:53:45.846Z,10.15
2022-10-12T07:56:16.844Z,9.10
2022-10-12T07:58:53.114Z,9.18
2022-10-12T08:01:22.760Z,9.82
2022-10-12T08:03:50.320Z,9.52
2022-10-12T08:06:22.132Z,9.18
2022-10-12T08:08:50.586Z,8.80
2022-10-12T08:11:18.898Z,9.52
2022-10-12T08:13:46.511Z,9.18
2022-10-12T08:16:18.105Z,9.60
2022-10-12T08:18:44.995Z,9.05
2022-10-12T08:21:15.457Z,8.85
2022-10-12T08:23:45.013Z,9.00
2022-10-12T08:26:14.781Z,8.90
2022-10-12T08:28:42.043Z,7.88
2022-10-12T08:31:16.531Z,7.65
2022-10-12T08:33:44.052Z,8.57
2022-10-12T08:36:13.317Z,8.38
2022-10-12T08:38:40.648Z,7.63
2022-10-12T08:42:05.498Z,8.07
2022-10-12T08:45:07.556Z,8.15
2022-10-12T08:47:44.361Z,8.13
2022-10-12T08:50:35.831Z,7.25
2022-10-12T08:53:21.625Z,7.65
2022-10-12T08:55:55.786Z,6.75
2022-10-12T08:58:44.033Z,6.50
2022-10-12T09:01:30.450Z,5.30
2022-10-12T09:04:14.550Z,5.55
2022-10-12T09:06:55.445Z,5.22
2022-10-12T09:09:51.996Z,5.70
2022-10-12T09:13:30.566Z,4.90
2022-10-12T09:16:11.958Z,4.28
2022-10-12T09:18:44.592Z,3.83
2022-10-12T09:21:19.765Z,3.75
2022-10-12T09:23:48.104Z,3.80
2022-10-12T09:26:22.996Z,3.55
2022-10-12T09:28:57.462Z,3.88
2022-10-12T09:32:33.270Z,3.63
2022-10-12T09:35:00.517Z,3.30
2022-10-12T09:37:33.028Z,2.97
2022-10-12T09:40:00.260Z,3.35
2022-10-12T09:42:27.096Z,3.13
2022-10-12T09:45:19.054Z,3.10
2022-10-12T09:48:22.236Z,2.97
2022-10-12T09:51:01.144Z,2.78
2022-10-12T09:53:43.640Z,2.80
2022-10-12T09:56:30.340Z,2.75
2022-10-12T09:59:06.905Z,2.80
2022-10-12T10:01:38.310Z,2.47
2022-10-12T10:04:24.623Z,2.63
2022-10-12T10:06:51.849Z,2.88
2022-10-12T10:09:35.412Z,2.75
2022-10-12T10:12:26.765Z,2.45
2022-10-12T10:14:57.147Z,2.92
2022-10-12T10:17:33.967Z,2.35
2022-10-12T10:20:05.590Z,2.70
2022-10-12T10:22:32.877Z,3.03
2022-10-12T10:25:01.296Z,2.83
2022-10-12T10:27:39.902Z,3.05
2022-10-12T10:30:30.075Z,3.08
2022-10-12T10:33:19.575Z,3.20
2022-10-12T10:36:03.987Z,2.35
2022-10-12T10:38:44.823Z,2.17
2022-10-12T10:41:18.375Z,2.75
2022-10-12T10:43:49.997Z,2.38
2022-10-12T10:46:26.462Z,1.88
2022-10-12T10:49:06.094Z,1.75
2022-10-12T10:51:50.227Z,1.55
2022-10-12T10:54:31.370Z,2.03
2022-10-12T10:57:21.786Z,1.58
2022-10-12T11:00:14.191Z,1.25
2022-10-12T11:02:54.324Z,1.70
2022-10-12T11:05:31.766Z,1.60
2022-10-12T11:08:03.175Z,1.45
2022-10-12T11:10:54.615Z,1.65
2022-10-12T11:13:44.019Z,2.08
2022-10-12T11:16:43.552Z,1.65
2022-10-12T11:19:36.915Z,1.63
2022-10-12T11:22:25.788Z,1.60
2022-10-12T11:25:14.428Z,2.05
2022-10-12T11:27:42.276Z,1.90
2022-10-12T11:30:23.906Z,2.00
2022-10-12T11:33:06.606Z,1.77
2022-10-12T11:35:42.503Z,1.60
2022-10-12T11:38:22.294Z,2.28
2022-10-12T11:41:34.406Z,2.13
2022-10-12T11:44:16.321Z,1.77
2022-10-12T11:46:55.577Z,2.20
2022-10-12T11:49:59.771Z,2.80
2022-10-12T11:52:37.007Z,2.63
2022-10-12T11:55:24.201Z,2.88
2022-10-12T11:57:54.417Z,2.20
2022-10-12T12:00:32.617Z,2.53
2022-10-12T12:03:15.329Z,3.05
2022-10-12T12:05:42.679Z,2.70
2022-10-12T12:08:43.878Z,2.50
2022-10-12T12:11:30.306Z,2.70
2022-10-12T12:14:21.802Z,3.63
2022-10-12T12:16:49.631Z,2.63
2022-10-12T12:19:43.253Z,3.45
2022-10-12T12:22:32.384Z,3.42
2022-10-12T12:25:08.461Z,3.58
2022-10-12T12:27:43.793Z,2.78
2022-10-12T12:30:19.348Z,2.95
2022-10-12T12:32:51.648Z,2.75
2022-10-12T12:35:26.161Z,2.33
2022-10-12T12:38:18.753Z,2.72
2022-10-12T12:41:10.358Z,2.50
2022-10-12T12:43:57.141Z,3.00
2022-10-12T12:46:47.233Z,2.95
2022-10-12T12:49:39.342Z,2.70
2022-10-12T12:52:38.359Z,2.92
2022-10-12T12:55:39.065Z,3.05
2022-10-12T12:58:40.520Z,2.83
2022-10-12T13:01:20.893Z,2.70
2022-10-12T13:04:45.246Z,2.83
2022-10-12T13:07:42.440Z,2.53
2022-10-12T13:10:33.812Z,2.30
2022-10-12T13:13:44.624Z,2.53
2022-10-12T13:17:31.421Z,2.60
2022-10-12T13:19:44.813Z,2.85
2022-10-12T13:22:34.900Z,2.83
2022-10-12T13:25:23.766Z,2.17
2022-10-12T13:27:53.130Z,3.25
2022-10-12T13:30:54.623Z,2.30
2022-10-12T13:33:32.119Z,2.67
2022-10-12T13:36:09.013Z,2.45
2022-10-12T13:38:38.440Z,2.67
2022-10-12T13:41:11.329Z,2.80
2022-10-12T13:43:51.478Z,2.80
2022-10-12T13:46:41.685Z,3.15
2022-10-12T13:49:31.262Z,2.92
2022-10-12T13:52:19.964Z,3.03
2022-10-12T13:54:49.734Z,3.45
2022-10-12T13:57:41.209Z,3.08
2022-10-12T14:00:14.305Z,2.60
2022-10-12T14:02:43.544Z,2.65
2022-10-12T14:05:21.258Z,3.40
2022-10-12T14:07:52.364Z,2.95
2022-10-12T14:14:09.916Z,2.80
2022-10-12T14:16:47.243Z,2.95
2022-10-12T14:19:31.838Z,3.22
2022-10-12T14:22:01.037Z,2.75
2022-10-12T14:24:28.559Z,2.75
2022-10-12T14:27:02.848Z,2.92
2022-10-12T14:29:45.212Z,2.67
2022-10-12T14:32:11.968Z,2.90
2022-10-12T14:34:50.137Z,2.22
2022-10-12T14:37:17.848Z,2.90
2022-10-12T14:39:48.689Z,2.30
2022-10-12T14:42:30.718Z,2.47
2022-10-12T14:44:59.309Z,2.17
2022-10-12T14:47:33.547Z,2.80
2022-10-12T14:50:10.379Z,3.08
2022-10-12T14:53:11.816Z,3.13
2022-10-12T14:55:39.593Z,2.65
2022-10-12T14:58:08.134Z,2.97
2022-10-12T15:00:37.566Z,2.42
2022-10-12T15:03:05.281Z,2.90
2022-10-12T15:05:33.964Z,2.67
2022-10-12T15:08:07.087Z,2.80
2022-10-12T15:10:34.513Z,3.10
2022-10-12T15:13:01.451Z,3.42
2022-10-12T15:15:47.570Z,3.10
2022-10-12T15:18:14.405Z,2.45
2022-10-12T15:20:45.419Z,2.90
2022-10-12T15:23:15.299Z,2.67
2022-10-12T15:25:50.091Z,3.20
2022-10-12T15:28:17.448Z,2.70
2022-10-12T15:31:11.620Z,3.13
2022-10-12T15:33:32.148Z,3.25
2022-10-12T15:35:58.922Z,3.08
2022-10-12T15:38:25.747Z,2.83
2022-10-12T15:40:53.322Z,3.20
2022-10-12T15:43:20.451Z,2.97
2022-10-12T15:45:47.368Z,2.90
2022-10-12T15:48:14.064Z,3.28
2022-10-12T15:50:45.389Z,2.47
2022-10-12T15:53:23.865Z,3.30
2022-10-12T15:55:55.205Z,3.67
2022-10-12T15:58:23.450Z,3.53
2022-10-12T16:00:52.912Z,4.07
2022-10-12T16:06:02.690Z,3.72
2022-10-12T16:08:29.478Z,3.10
2022-10-12T16:10:57.052Z,3.65
2022-10-12T16:16:05.651Z,3.90
2022-10-12T16:18:32.472Z,4.13
2022-10-12T16:20:59.315Z,4.30
2022-10-12T16:23:35.961Z,4.00
2022-10-12T16:26:29.965Z,3.67
2022-10-12T16:29:03.493Z,7.20
2022-10-12T16:31:30.326Z,7.20
2022-10-12T16:34:09.603Z,4.68
2022-10-12T16:36:40.160Z,5.47
2022-10-12T16:39:06.965Z,7.28
2022-10-12T16:41:34.181Z,6.53
2022-10-12T16:44:01.652Z,4.00
2022-10-12T16:46:30.460Z,4.13
2022-10-12T16:48:57.208Z,4.18
2022-10-12T16:51:24.002Z,4.20
2022-10-12T16:53:50.997Z,4.80
2022-10-12T16:56:17.791Z,6.78
2022-10-12T16:58:44.583Z,6.53
2022-10-12T17:01:13.655Z,5.50
2022-10-12T17:03:40.912Z,5.97
2022-10-12T17:06:08.196Z,6.20
2022-10-12T17:08:36.710Z,7.45
2022-10-12T17:11:14.228Z,8.48
2022-10-12T17:13:45.323Z,6.72
2022-10-12T17:16:33.146Z,8.07
2022-10-12T17:19:00.360Z,7.80
2022-10-12T17:21:28.649Z,7.03
2022-10-12T17:24:00.602Z,6.38
2022-10-12T17:26:28.939Z,8.25
2022-10-12T17:28:56.321Z,7.15
2022-10-12T17:31:54.070Z,6.45
2022-10-12T17:34:33.713Z,6.15
2022-10-12T17:37:17.180Z,5.88
2022-10-12T17:40:10.819Z,6.38
2022-10-12T17:42:39.007Z,5.20
2022-10-12T17:45:07.326Z,6.60
2022-10-12T17:47:41.601Z,6.45
2022-10-12T17:50:28.977Z,6.07
2022-10-12T17:52:56.412Z,6.95
2022-10-12T17:55:47.163Z,7.60
2022-10-12T17:58:15.890Z,6.63
2022-10-12T18:00:43.069Z,7.50
2022-10-12T18:03:11.638Z,6.78
2022-10-12T18:05:38.985Z,6.40
2022-10-12T18:08:06.263Z,5.75
2022-10-12T18:10:33.690Z,6.35
2022-10-12T18:13:01.148Z,6.32
2022-10-12T18:15:51.752Z,7.90
2022-10-12T18:18:20.710Z,7.00
2022-10-12T18:20:49.094Z,9.00
2022-10-12T18:23:17.101Z,8.00
2022-10-12T18:25:55.377Z,13.82
2022-10-12T18:28:23.876Z,9.13
2022-10-12T18:30:53.543Z,8.60
2022-10-12T18:33:37.517Z,7.25
2022-10-12T18:36:11.925Z,7.30
2022-10-12T18:38:39.944Z,6.40
2022-10-12T18:41:30.204Z,13.50
2022-10-12T18:44:14.234Z,8.13
2022-10-12T18:46:44.902Z,8.07
2022-10-12T18:49:12.690Z,7.45
2022-10-12T18:51:43.687Z,6.65
2022-10-12T18:54:13.953Z,7.75
2022-10-12T18:56:42.208Z,7.28
2022-10-12T18:59:11.775Z,8.07
2022-10-12T19:01:39.705Z,9.32
2022-10-12T19:04:07.239Z,10.20
2022-10-12T19:06:39.208Z,11.75
2022-10-12T19:09:06.457Z,12.63
2022-10-12T19:11:34.594Z,12.30
2022-10-12T19:14:06.095Z,14.32
2022-10-12T19:16:34.705Z,18.73
2022-10-12T19:19:14.794Z,13.63
2022-10-12T19:21:49.043Z,8.40
2022-10-12T19:24:16.486Z,10.90
2022-10-12T19:26:44.565Z,11.57
2022-10-12T19:29:14.996Z,10.32
2022-10-12T19:31:50.111Z,6.95
2022-10-12T19:36:48.556Z,7.32
2022-10-12T19:39:20.357Z,7.53
2022-10-12T19:41:49.277Z,8.20
2022-10-12T19:44:19.067Z,9.02
2022-10-12T19:46:49.843Z,8.55
2022-10-12T19:49:20.755Z,9.10
2022-10-12T19:51:48.965Z,10.15
2022-10-12T19:54:24.788Z,9.90
2022-10-12T19:56:54.482Z,8.38
2022-10-12T19:59:29.479Z,9.65
2022-10-12T20:01:58.580Z,8.90
2022-10-12T20:04:26.044Z,8.20
2022-10-12T20:06:53.948Z,7.97
2022-10-12T20:09:24.286Z,8.60
2022-10-12T20:11:53.133Z,8.35
2022-10-12T20:14:21.302Z,8.23
2022-10-12T20:16:53.329Z,8.98
2022-10-12T20:19:20.719Z,9.20
2022-10-12T20:21:48.434Z,9.68
2022-10-12T20:24:16.407Z,9.10
2022-10-12T20:26:44.177Z,10.60
2022-10-12T20:29:11.716Z,10.70
2022-10-12T20:31:40.940Z,10.63
2022-10-12T20:34:13.665Z,8.25
2022-10-12T20:36:52.876Z,8.05
2022-10-12T20:39:23.355Z,9.40
2022-10-12T20:41:53.039Z,10.40
2022-10-12T20:44:20.990Z,10.18
2022-10-12T20:46:58.511Z,10.65
2022-10-12T20:49:27.784Z,9.20
2022-10-12T20:52:07.109Z,9.38
2022-10-12T20:54:36.113Z,11.23
2022-10-12T20:57:08.289Z,13.02
2022-10-12T20:59:37.414Z,13.20
2022-10-12T21:02:10.609Z,11.77
2022-10-12T21:04:46.619Z,12.55
2022-10-12T21:07:18.126Z,11.90
2022-10-12T21:09:48.406Z,12.95
2022-10-12T21:12:19.025Z,11.65
2022-10-12T21:14:47.670Z,12.38
2022-10-12T21:17:18.534Z,12.73
2022-10-12T21:19:52.945Z,11.75
2022-10-12T21:22:20.852Z,12.80
2022-10-12T21:24:48.760Z,12.88
2022-10-12T21:27:16.205Z,12.30
2022-10-12T21:29:54.010Z,12.63
2022-10-12T21:32:23.473Z,11.07
2022-10-12T21:34:56.759Z,11.90
2022-10-12T21:37:24.551Z,12.23
2022-10-12T21:39:55.169Z,12.13
2022-10-12T21:42:23.088Z,10.88
2022-10-12T21:45:04.392Z,11.82
2022-10-12T21:47:38.345Z,10.80
2022-10-12T21:50:11.970Z,11.32
2022-10-12T21:52:40.563Z,12.82
2022-10-12T21:55:09.241Z,11.68
2022-10-12T21:57:37.619Z,11.25
2022-10-12T22:00:08.036Z,11.55
2022-10-12T22:02:39.836Z,11.65
2022-10-12T22:05:12.903Z,11.02
2022-10-12T22:07:43.700Z,10.93
2022-10-12T22:10:14.394Z,12.38
2022-10-12T22:12:47.218Z,11.50
2022-10-12T22:15:21.873Z,11.90
2022-10-12T22:17:51.164Z,10.38
2022-10-12T22:20:32.123Z,11.15
2022-10-12T22:23:19.390Z,10.60
2022-10-12T22:25:55.614Z,10.95
2022-10-12T22:28:29.282Z,9.80
2022-10-12T22:31:00.028Z,9.98
2022-10-12T22:33:27.962Z,9.98
2022-10-12T22:36:01.134Z,9.13
2022-10-12T22:38:36.501Z,9.43
2022-10-12T22:41:16.384Z,10.35
2022-10-12T22:43:48.668Z,9.65
2022-10-12T22:46:22.616Z,8.80
2022-10-12T22:48:50.567Z,9.10
2022-10-12T22:51:31.927Z,8.88
2022-10-12T22:54:02.275Z,8.23
2022-10-12T22:56:30.143Z,8.05
2022-10-12T22:59:00.789Z,7.70
2022-10-12T23:01:30.359Z,8.02
2022-10-12T23:04:00.379Z,8.93
2022-10-12T23:06:28.614Z,10.43
2022-10-12T23:08:58.265Z,8.88
2022-10-12T23:11:30.305Z,7.43
2022-10-12T23:13:59.776Z,7.65
2022-10-12T23:16:36.791Z,8.82
2022-10-12T23:19:09.353Z,9.13
2022-10-12T23:21:45.680Z,8.52
2022-10-12T23:24:16.974Z,8.18
2022-10-12T23:26:45.929Z,9.95
2022-10-12T23:29:29.870Z,11.43
2022-10-12T23:32:01.015Z,7.60
2022-10-12T23:34:35.451Z,8.85
2022-10-12T23:37:06.966Z,8.82
2022-10-12T23:39:46.844Z,11.00
2022-10-12T23:42:18.108Z,9.65
2022-10-12T23:44:50.819Z,9.07
2022-10-12T23:47:25.798Z,8.98
2022-10-12T23:49:54.518Z,8.18
2022-10-12T23:52:23.419Z,8.43
2022-10-12T23:54:53.297Z,8.13
2022-10-12T23:57:45.093Z,8.85
